• Join FlightAware (Why Join?)
  • Login
  • US Flag 
Gobble Gobble! 
09:17AM EST


 

Airport Tracker/Info


-or-


 

Live Flight TrackerFlight Track Log ✈ SWA286 ✈ 05-Apr-2013 ✈ KBWI - KRSW

Flight Track Log - Related Links

Times and Time Zones

All times are in EDT time to prevent confusion due to time zone crossing. See the SWA286 flight status page for this flight to view local times or setup timezone preferences in your user account.

Time Position Orientation Groundspeed Altitude Reporting Facility
EDT Latitude Longitude Course Direction KTS MPH feet Rate Location/Type
05:11PM 39.1167 -76.6833 142° Southeast 250 288 4,400  Level Potomac TRACON
05:12PM 39.0833 -76.6167 123° Southeast 252 290 7,400 2,880 Climbing Potomac TRACON
05:13PM 39.0167 -76.5667 150° Southeast 301 346 10,200 2,880 Climbing Potomac TRACON
05:14PM 38.9167 -76.5333 165° South 344 396 13,200 1,980 Climbing Potomac TRACON
05:15PM 38.8333 -76.5000 163° South 358 412 14,000 1,080 Climbing Potomac TRACON
05:17PM 38.6611 -76.5861 201° Southwest 347 399 16,600 1,740 Climbing Washington Center
05:18PM 38.5589 -76.5978 185° South 348 400 19,500 1,680 Climbing Washington Center
05:19PM 38.4547 -76.6044 183° South 368 423 20,000 240 Climbing Washington Center
05:20PM 38.3544 -76.6136 184° South 374 430 20,000  Level Washington Center
05:21PM 38.2542 -76.6203 183° South 369 425 20,000 600 Level Washington Center
05:22PM 38.1542 -76.6294 184° South 369 425 21,300 1,800 Climbing Washington Center
05:23PM 38.0478 -76.6386 184° South 369 425 23,700 2,460 Climbing Washington Center
05:24PM 37.9392 -76.6450 183° South 382 440 26,300 2,520 Climbing Washington Center
05:25PM 37.8308 -76.6278 173° South 388 447 28,800 1,800 Climbing Washington Center
05:26PM 37.7225 -76.6158 175° South 393 452 30,000 600 Climbing Washington Center
05:27PM 37.6119 -76.6142 179° South 393 452 30,000 120 Level Washington Center
05:28PM 37.5136 -76.6497 196° South 381 438 30,300 1,200 Climbing Washington Center
05:29PM 37.4111 -76.6875 196° South 381 438 32,400 2,040 Climbing Washington Center
05:30PM 37.3128 -76.7225 196° South 381 438 34,400 2,340 Climbing Washington Center
05:31PM 37.2206 -76.7578 197° South 369 425 37,100 1,800 Climbing Washington Center
05:32PM 37.1306 -76.7875 195° South 347 399 38,000 420 Climbing Washington Center
05:33PM 37.0406 -76.8225 197° South 340 391 38,000  Level Washington Center
05:34PM 36.9506 -76.8550 196° South 340 391 38,000  Level Washington Center
05:35PM 36.8583 -76.8872 196° South 340 391 38,000  Level Washington Center
05:36PM 36.7664 -76.9194 196° South 340 391 38,000  Level Washington Center
05:37PM 36.6761 -76.9517 196° South 340 391 38,000  Level Washington Center
05:38PM 36.5842 -76.9836 196° South 345 397 38,000  Level Washington Center
05:39PM 36.4939 -77.0156 196° South 345 397 38,000  Level Washington Center
05:40PM 36.3914 -77.0525 196° South 345 397 38,000  Level Washington Center
05:41PM 36.3011 -77.0842 196° South 345 397 38,000  Level Washington Center
05:42PM 36.2089 -77.1133 194° South 345 397 38,000  Level Washington Center
05:43PM 36.1292 -77.1453 198° South 345 397 38,000  Level Washington Center
05:44PM 36.0372 -77.1769 196° South 339 390 38,000  Level Washington Center
05:45PM 35.9447 -77.2083 195° South 344 396 38,000  Level Washington Center
05:46PM 35.8506 -77.2372 194° South 344 396 38,000  Level Washington Center
05:47PM 35.7583 -77.2736 198° South 344 396 38,000  Level Washington Center
05:48PM 35.6639 -77.3050 195° South 344 396 38,000  Level Washington Center
05:49PM 35.5697 -77.3361 195° South 349 402 38,000  Level Washington Center
05:50PM 35.4731 -77.3672 195° South 349 402 38,000  Level Washington Center
05:51PM 35.3808 -77.4008 197° South 354 407 38,000  Level Washington Center
05:52PM 35.2886 -77.4317 195° South 354 407 38,000  Level Washington Center
05:53PM 35.1942 -77.4628 195° South 354 407 38,000  Level Washington Center
05:54PM 35.0997 -77.4961 196° South 360 414 38,000  Level Washington Center
05:55PM 35.0053 -77.5267 195° South 360 414 38,000  Level Washington Center
05:56PM 34.9150 -77.5600 197° South 360 414 38,000  Level Washington Center
05:57PM 34.8103 -77.5931 195° South 355 409 38,000  Level Washington Center
05:58PM 34.7306 -77.6214 196° South 355 409 38,000  Level Washington Center
05:59PM 34.6381 -77.6544 196° South 350 403 38,000  Level Washington Center
06:00PM 34.5458 -77.6847 195° South 345 397 38,000  Level Washington Center
06:01PM 34.4533 -77.7153 195° South 345 397 38,000  Level Washington Center
06:02PM 34.3589 -77.7481 196° South 345 397 38,000  Level Washington Center
06:03PM 34.2603 -77.7781 194° South 352 405 38,000  Level Washington Center
06:05PM 34.0997 -77.8269 194° South 376 433 38,000  Level Jacksonville Center
06:06PM 34.0031 -77.8628 197° South 376 433 38,000  Level Jacksonville Center
06:07PM 33.9106 -77.8931 195° South 370 426 38,000  Level Jacksonville Center
06:08PM 33.8156 -77.9186 193° South 365 420 38,000  Level Jacksonville Center
06:09PM 33.7189 -77.9514 196° South 365 420 38,000  Level Jacksonville Center
06:10PM 33.6222 -77.9867 197° South 365 420 38,000  Level Jacksonville Center
06:11PM 33.5253 -78.0169 195° South 360 414 38,000  Level Jacksonville Center
06:12PM 33.4306 -78.0497 196° South 360 414 38,000  Level Jacksonville Center
06:13PM 33.3356 -78.0797 195° South 355 409 38,000  Level Jacksonville Center
06:14PM 33.2389 -78.1122 196° South 355 409 38,000  Level Jacksonville Center
06:15PM 33.1439 -78.1419 195° South 355 409 38,000  Level Jacksonville Center
06:16PM 33.0469 -78.1719 195° South 355 409 38,000  Level Jacksonville Center
06:17PM 32.9542 -78.2017 195° South 355 409 38,000  Level Jacksonville Center
06:18PM 32.8592 -78.2311 195° South 355 409 38,000  Level Jacksonville Center
06:19PM 32.7622 -78.2608 194° South 355 409 38,000  Level Jacksonville Center
06:20PM 32.6675 -78.2956 197° South 355 409 38,000  Level Jacksonville Center
06:21PM 32.5725 -78.3225 193° South 355 409 38,000  Level Jacksonville Center
06:22PM 32.4775 -78.3542 196° South 355 409 38,000  Level Jacksonville Center
06:23PM 32.3828 -78.3836 195° South 355 409 38,000  Level Jacksonville Center
06:24PM 32.3003 -78.4147 198° South 355 409 38,000  Level Jacksonville Center
06:25PM 32.2053 -78.4439 195° South 355 409 38,000  Level Jacksonville Center
06:26PM 32.1103 -78.4731 195° South 355 409 38,000  Level Jacksonville Center
06:27PM 32.0072 -78.5075 196° South 355 409 38,000  Level Jacksonville Center
06:28PM 31.9100 -78.5364 194° South 355 409 38,000  Level Jacksonville Center
06:29PM 31.8150 -78.5656 195° South 355 409 38,000  Level Jacksonville Center
06:30PM 31.7200 -78.5967 196° South 355 409 38,000  Level Jacksonville Center
06:31PM 31.6272 -78.6278 196° South 355 409 38,000  Level Jacksonville Center
06:32PM 31.5300 -78.6567 194° South 355 409 38,000  Level Jacksonville Center
06:33PM 31.4411 -78.6850 195° South 355 409 38,000  Level Jacksonville Center
06:34PM 31.3503 -78.7133 195° South 350 403 38,000  Level Jacksonville Center
06:35PM 31.2572 -78.7419 195° South 350 403 38,000  Level Jacksonville Center
06:36PM 31.1642 -78.7703 195° South 350 403 38,000  Level Jacksonville Center
06:37PM 31.0753 -78.7961 194° South 344 396 38,000  Level Jacksonville Center
06:38PM 30.9825 -78.8267 196° South 349 402 38,000  Level Jacksonville Center
06:39PM 30.8892 -78.8525 193° South 344 396 38,000  Level Jacksonville Center
06:41PM 30.7158 -78.9081 195° South 335 386 38,000  Level Miami Center
06:42PM 30.6300 -78.9353 195° South 343 395 38,000  Level Miami Center
06:43PM 30.5336 -78.9622 194° South 343 395 38,000  Level Miami Center
06:44PM 30.4478 -78.9894 195° South 338 389 38,000  Level Miami Center
06:45PM 30.3597 -79.0239 199° South 338 389 38,000  Level Miami Center
06:46PM 30.2758 -79.0606 201° Southwest 338 389 38,000  Level Miami Center
06:47PM 30.1878 -79.0994 201° Southwest 338 389 38,000 -300 Level Miami Center
06:48PM 30.0975 -79.1358 199° South 333 383 37,400 -780 Descending Miami Center
06:49PM 30.0178 -79.1725 202° Southwest 333 383 36,500 -960 Descending Miami Center
06:50PM 29.9356 -79.2186 206° Southwest 328 377 35,500 -1,020 Descending Miami Center
06:51PM 29.8558 -79.2553 202° Southwest 323 372 34,500 -960 Descending Miami Center
06:52PM 29.7678 -79.2842 196° South 323 372 33,600 -900 Descending Miami Center
06:53PM 29.6836 -79.3256 203° Southwest 323 372 32,700 -840 Descending Miami Center
06:54PM 29.6014 -79.3664 203° Southwest 330 380 32,000 -360 Descending Miami Center
06:55PM 29.5317 -79.4292 218° Southwest 330 380 32,000  Level Miami Center
06:56PM 29.4533 -79.4869 213° Southwest 330 380 32,000  Level Miami Center
06:57PM 29.3811 -79.5519 218° Southwest 336 387 32,000  Level Miami Center
06:58PM 29.3050 -79.6144 216° Southwest 341 392 32,000  Level Miami Center
06:59PM 29.2328 -79.6792 218° Southwest 346 398 32,000 -600 Level Miami Center
07:00PM 29.1586 -79.7389 215° Southwest 346 398 30,900 -1,080 Descending Miami Center
07:01PM 29.0906 -79.8036 220° Southwest 334 384 29,900 -1,020 Descending Miami Center
07:02PM 29.0183 -79.8633 216° Southwest 328 377 28,900 -1,020 Descending Miami Center
07:03PM 28.9503 -79.9233 218° Southwest 323 372 27,900 -1,020 Descending Miami Center
07:04PM 28.8803 -79.9783 215° Southwest 318 366 26,900 -1,020 Descending Miami Center
07:05PM 28.8142 -80.0381 218° Southwest 318 366 25,900 -1,020 Descending Miami Center
07:06PM 28.7442 -80.0950 216° Southwest 318 366 24,900 -900 Descending Miami Center
07:07PM 28.6697 -80.1617 218° Southwest 329 379 24,100 -720 Descending Miami Center
07:08PM 28.5928 -80.2350 220° Southwest 329 379 23,500 -780 Descending Miami Center
07:09PM 28.5572 -80.3214 245° Southwest 334 384 22,600 -960 Descending Miami Center
07:10PM 28.5133 -80.4144 242° Southwest 334 384 21,600 -1,080 Descending Miami Center
07:11PM 28.4669 -80.5169 243° Southwest 334 384 20,500 -840 Descending Miami Center
07:12PM 28.4228 -80.6097 242° Southwest 335 386 20,000 -300 Descending Miami Center
07:13PM 28.3786 -80.7028 242° Southwest 335 386 20,000  Level Miami Center
07:14PM 28.3344 -80.7931 241° Southwest 335 386 20,000  Level Miami Center
07:15PM 28.2922 -80.8883 243° Southwest 335 386 20,000  Level Miami Center
07:16PM 28.2478 -80.9811 241° Southwest 340 391 20,000  Level Miami Center
07:17PM 28.2033 -81.0736 241° Southwest 340 391 20,000  Level Miami Center
07:18PM 28.1608 -81.1686 243° Southwest 340 391 20,000  Level Miami Center
07:19PM 28.1161 -81.2633 242° Southwest 340 391 20,000  Level Miami Center
07:20PM 28.0761 -81.3464 241° Southwest 345 397 20,000  Level Miami Center
07:21PM 27.9822 -81.4086 210° Southwest 345 397 20,000  Level Miami Center
07:22PM 27.8694 -81.4158 183° South 354 407 20,000 -300 Level Miami Center
07:23PM 27.7606 -81.4256 185° South 386 444 19,500 -780 Descending Miami Center
07:24PM 27.6581 -81.4308 183° South 408 470 18,500 -1,020 Descending Miami Center
07:25PM 27.5472 -81.4403 184° South 408 470 17,500 -1,020 Descending Miami Center
07:26PM 27.4364 -81.4478 183° South 408 470 16,500 -1,020 Descending Miami Center
07:27PM 27.3317 -81.4575 185° South 408 470 15,500 -1,800 Descending Miami Center
07:28PM 27.2250 -81.4650 184° South 396 456 13,000 -2,460 Descending Miami Center
07:29PM 27.1244 -81.4750 185° South 385 443 10,600 -1,560 Descending Miami Center
07:30PM 27.0242 -81.4825 184° South 370 426 9,900 -360 Descending Miami Center
07:31PM 26.9272 -81.4414 159° South 346 398 9,900 -660 Level Miami Center
07:32PM 26.8533 -81.4014 154° Southeast 313 360 8,600 -1,500 Descending Miami Center
07:33PM 26.7869 -81.3919 173° South 299 344 6,900 -1,560 Descending Miami Center
07:34PM 26.7433 -81.4483 229° Southwest 216 249 5,500 -1,440 Descending Miami Center
07:35PM 26.7017 -81.5117 234° Southwest 233 268 4,100 -1,620 Descending Miami Center
07:36PM 26.6533 -81.5817 232° Southwest 258 297 2,300 -1,200 Descending Miami Center
07:37PM 26.6075 -81.6428 230° Southwest 263 303 1,700 8,820 Descending Miami Center
07:38PM 26.5639 -81.7058 232° Southwest 263 303 20,000 18,300 Climbing Miami Center
07:40PM 26.5333 -81.7500 318° Northwest  Level FlightAware Approximate
07:47PM 26.5362 -81.7552 318° Northwest  Level Estimated
07:48PM 26.5333 -81.7500 318° Northwest  Level FlightAware Approximate